sensor_id;sensor_type;location;lat;lon;timestamp;temperature;humidity
7530;DHT22;3806;52.270;10.544;2022-12-10T00:01:28;1.40;99.90
7530;DHT22;3806;52.270;10.544;2022-12-10T00:03:54;1.40;99.90
7530;DHT22;3806;52.270;10.544;2022-12-10T00:06:24;1.40;99.90
7530;DHT22;3806;52.270;10.544;2022-12-10T00:08:50;1.40;99.90
7530;DHT22;3806;52.270;10.544;2022-12-10T00:11:17;1.40;99.90
7530;DHT22;3806;52.270;10.544;2022-12-10T00:13:44;1.40;99.90
7530;DHT22;3806;52.270;10.544;2022-12-10T00:16:12;1.40;99.90
7530;DHT22;3806;52.270;10.544;2022-12-10T00:18:39;1.40;99.90
7530;DHT22;3806;52.270;10.544;2022-12-10T00:21:06;1.30;99.90
7530;DHT22;3806;52.270;10.544;2022-12-10T00:23:33;1.30;99.90
7530;DHT22;3806;52.270;10.544;2022-12-10T00:26:17;1.30;99.90
7530;DHT22;3806;52.270;10.544;2022-12-10T00:28:44;1.30;99.90
7530;DHT22;3806;52.270;10.544;2022-12-10T00:31:16;1.40;99.90
7530;DHT22;3806;52.270;10.544;2022-12-10T00:33:42;1.50;99.90
7530;DHT22;3806;52.270;10.544;2022-12-10T00:36:14;1.50;99.90
7530;DHT22;3806;52.270;10.544;2022-12-10T00:38:41;1.50;99.90
7530;DHT22;3806;52.270;10.544;2022-12-10T00:41:06;1.50;99.90
7530;DHT22;3806;52.270;10.544;2022-12-10T00:43:33;1.50;99.90
7530;DHT22;3806;52.270;10.544;2022-12-10T00:45:59;1.50;99.90
7530;DHT22;3806;52.270;10.544;2022-12-10T00:48:25;1.60;99.90
7530;DHT22;3806;52.270;10.544;2022-12-10T00:50:59;1.60;99.90
7530;DHT22;3806;52.270;10.544;2022-12-10T00:53:26;1.50;99.90
7530;DHT22;3806;52.270;10.544;2022-12-10T00:55:53;1.50;99.90
7530;DHT22;3806;52.270;10.544;2022-12-10T00:58:19;1.50;99.90
7530;DHT22;3806;52.270;10.544;2022-12-10T01:00:44;1.50;99.90
7530;DHT22;3806;52.270;10.544;2022-12-10T01:03:10;1.50;99.90
7530;DHT22;3806;52.270;10.544;2022-12-10T01:05:36;1.50;99.90
7530;DHT22;3806;52.270;10.544;2022-12-10T01:08:01;1.50;99.90
7530;DHT22;3806;52.270;10.544;2022-12-10T01:10:27;1.40;99.90
7530;DHT22;3806;52.270;10.544;2022-12-10T01:12:52;1.40;99.90
7530;DHT22;3806;52.270;10.544;2022-12-10T01:15:18;1.40;99.90
7530;DHT22;3806;52.270;10.544;2022-12-10T01:17:43;1.40;99.90
7530;DHT22;3806;52.270;10.544;2022-12-10T01:20:09;1.50;99.90
7530;DHT22;3806;52.270;10.544;2022-12-10T01:22:35;1.50;99.90
7530;DHT22;3806;52.270;10.544;2022-12-10T01:25:01;1.50;99.90
7530;DHT22;3806;52.270;10.544;2022-12-10T01:27:26;1.50;99.90
7530;DHT22;3806;52.270;10.544;2022-12-10T01:29:52;1.50;99.90
7530;DHT22;3806;52.270;10.544;2022-12-10T01:32:17;1.50;99.90
7530;DHT22;3806;52.270;10.544;2022-12-10T01:34:43;1.50;99.90
7530;DHT22;3806;52.270;10.544;2022-12-10T01:37:08;1.50;99.90
7530;DHT22;3806;52.270;10.544;2022-12-10T01:39:34;1.40;99.90
7530;DHT22;3806;52.270;10.544;2022-12-10T01:42:00;1.50;99.90
7530;DHT22;3806;52.270;10.544;2022-12-10T01:46:57;1.50;99.90
7530;DHT22;3806;52.270;10.544;2022-12-10T01:49:32;1.50;99.90
7530;DHT22;3806;52.270;10.544;2022-12-10T01:51:59;1.60;99.90
7530;DHT22;3806;52.270;10.544;2022-12-10T01:54:40;1.60;99.90
7530;DHT22;3806;52.270;10.544;2022-12-10T01:57:18;1.60;99.90
7530;DHT22;3806;52.270;10.544;2022-12-10T01:59:49;1.60;99.90
7530;DHT22;3806;52.270;10.544;2022-12-10T02:05:21;1.60;99.90
7530;DHT22;3806;52.270;10.544;2022-12-10T02:13:45;1.60;99.90
7530;DHT22;3806;52.270;10.544;2022-12-10T02:16:14;1.60;99.90
7530;DHT22;3806;52.270;10.544;2022-12-10T02:18:56;1.50;99.90
7530;DHT22;3806;52.270;10.544;2022-12-10T02:21:27;1.60;99.90
7530;DHT22;3806;52.270;10.544;2022-12-10T02:24:05;1.60;99.90
7530;DHT22;3806;52.270;10.544;2022-12-10T02:29:29;1.60;99.90
7530;DHT22;3806;52.270;10.544;2022-12-10T02:32:07;1.50;99.90
7530;DHT22;3806;52.270;10.544;2022-12-10T02:34:41;1.60;99.90
7530;DHT22;3806;52.270;10.544;2022-12-10T02:37:15;1.60;99.90
7530;DHT22;3806;52.270;10.544;2022-12-10T02:39:44;1.60;99.90
7530;DHT22;3806;52.270;10.544;2022-12-10T02:42:11;1.60;99.90
7530;DHT22;3806;52.270;10.544;2022-12-10T02:44:40;1.60;99.90
7530;DHT22;3806;52.270;10.544;2022-12-10T02:47:08;1.70;99.90
7530;DHT22;3806;52.270;10.544;2022-12-10T02:49:34;1.60;99.90
7530;DHT22;3806;52.270;10.544;2022-12-10T02:52:15;1.60;99.90
7530;DHT22;3806;52.270;10.544;2022-12-10T02:54:47;1.60;99.90
7530;DHT22;3806;52.270;10.544;2022-12-10T03:00:03;1.50;99.90
7530;DHT22;3806;52.270;10.544;2022-12-10T03:10:35;1.60;99.90
7530;DHT22;3806;52.270;10.544;2022-12-10T03:13:07;1.50;99.90
7530;DHT22;3806;52.270;10.544;2022-12-10T03:15:36;1.50;99.90
7530;DHT22;3806;52.270;10.544;2022-12-10T03:18:04;1.50;99.90
7530;DHT22;3806;52.270;10.544;2022-12-10T03:20:31;1.50;99.90
7530;DHT22;3806;52.270;10.544;2022-12-10T03:22:57;1.50;99.90
7530;DHT22;3806;52.270;10.544;2022-12-10T03:25:26;1.50;99.90
7530;DHT22;3806;52.270;10.544;2022-12-10T03:27:55;1.50;99.90
7530;DHT22;3806;52.270;10.544;2022-12-10T03:30:22;1.50;99.90
7530;DHT22;3806;52.270;10.544;2022-12-10T03:32:49;1.50;99.90
7530;DHT22;3806;52.270;10.544;2022-12-10T03:35:16;1.50;99.90
7530;DHT22;3806;52.270;10.544;2022-12-10T03:37:42;1.60;99.90
7530;DHT22;3806;52.270;10.544;2022-12-10T03:40:09;1.50;99.90
7530;DHT22;3806;52.270;10.544;2022-12-10T03:42:36;1.50;99.90
7530;DHT22;3806;52.270;10.544;2022-12-10T03:45:02;1.50;99.90
7530;DHT22;3806;52.270;10.544;2022-12-10T03:47:28;1.50;99.90
7530;DHT22;3806;52.270;10.544;2022-12-10T03:49:53;1.50;99.90
7530;DHT22;3806;52.270;10.544;2022-12-10T03:52:19;1.50;99.90
7530;DHT22;3806;52.270;10.544;2022-12-10T03:54:44;1.50;99.90
7530;DHT22;3806;52.270;10.544;2022-12-10T03:57:10;1.50;99.90
7530;DHT22;3806;52.270;10.544;2022-12-10T03:59:35;1.50;99.90
7530;DHT22;3806;52.270;10.544;2022-12-10T04:02:01;1.50;99.90
7530;DHT22;3806;52.270;10.544;2022-12-10T04:04:27;1.50;99.90
7530;DHT22;3806;52.270;10.544;2022-12-10T04:06:52;1.50;99.90
7530;DHT22;3806;52.270;10.544;2022-12-10T04:09:18;1.50;99.90
7530;DHT22;3806;52.270;10.544;2022-12-10T04:11:44;1.50;99.90
7530;DHT22;3806;52.270;10.544;2022-12-10T04:14:11;1.50;99.90
7530;DHT22;3806;52.270;10.544;2022-12-10T04:16:56;1.50;99.90
7530;DHT22;3806;52.270;10.544;2022-12-10T04:19:22;1.50;99.90
7530;DHT22;3806;52.270;10.544;2022-12-10T04:21:48;1.50;99.90
7530;DHT22;3806;52.270;10.544;2022-12-10T04:24:34;1.50;99.90
7530;DHT22;3806;52.270;10.544;2022-12-10T04:27:27;1.50;99.90
7530;DHT22;3806;52.270;10.544;2022-12-10T04:29:54;1.50;99.90
7530;DHT22;3806;52.270;10.544;2022-12-10T04:32:21;1.50;99.90
7530;DHT22;3806;52.270;10.544;2022-12-10T04:34:47;1.50;99.90
7530;DHT22;3806;52.270;10.544;2022-12-10T04:37:13;1.50;99.90
7530;DHT22;3806;52.270;10.544;2022-12-10T04:39:39;1.50;99.90
7530;DHT22;3806;52.270;10.544;2022-12-10T04:42:05;1.50;99.90
7530;DHT22;3806;52.270;10.544;2022-12-10T04:44:31;1.50;99.90
7530;DHT22;3806;52.270;10.544;2022-12-10T04:46:57;1.60;99.90
7530;DHT22;3806;52.270;10.544;2022-12-10T04:49:23;1.60;99.90
7530;DHT22;3806;52.270;10.544;2022-12-10T04:51:49;1.60;99.90
7530;DHT22;3806;52.270;10.544;2022-12-10T04:54:15;1.60;99.90
7530;DHT22;3806;52.270;10.544;2022-12-10T04:56:41;1.60;99.90
7530;DHT22;3806;52.270;10.544;2022-12-10T04:59:07;1.60;99.90
7530;DHT22;3806;52.270;10.544;2022-12-10T05:01:33;1.60;99.90
7530;DHT22;3806;52.270;10.544;2022-12-10T05:04:01;1.60;99.90
7530;DHT22;3806;52.270;10.544;2022-12-10T05:06:27;1.60;99.90
7530;DHT22;3806;52.270;10.544;2022-12-10T05:08:53;1.60;99.90
7530;DHT22;3806;52.270;10.544;2022-12-10T05:11:20;1.60;99.90
7530;DHT22;3806;52.270;10.544;2022-12-10T05:13:47;1.60;99.90
7530;DHT22;3806;52.270;10.544;2022-12-10T05:16:15;1.60;99.90
7530;DHT22;3806;52.270;10.544;2022-12-10T05:18:41;1.60;99.90
7530;DHT22;3806;52.270;10.544;2022-12-10T05:21:10;1.60;99.90
7530;DHT22;3806;52.270;10.544;2022-12-10T05:23:37;1.60;99.90
7530;DHT22;3806;52.270;10.544;2022-12-10T05:26:09;1.60;99.90
7530;DHT22;3806;52.270;10.544;2022-12-10T05:28:51;1.60;99.90
7530;DHT22;3806;52.270;10.544;2022-12-10T05:31:24;1.60;99.90
7530;DHT22;3806;52.270;10.544;2022-12-10T05:33:51;1.50;99.90
7530;DHT22;3806;52.270;10.544;2022-12-10T05:36:19;1.50;99.90
7530;DHT22;3806;52.270;10.544;2022-12-10T05:38:45;1.50;99.90
7530;DHT22;3806;52.270;10.544;2022-12-10T05:41:29;1.50;99.90
7530;DHT22;3806;52.270;10.544;2022-12-10T05:43:56;1.50;99.90
7530;DHT22;3806;52.270;10.544;2022-12-10T05:46:24;1.60;99.90
7530;DHT22;3806;52.270;10.544;2022-12-10T05:48:50;1.50;99.90
7530;DHT22;3806;52.270;10.544;2022-12-10T05:51:20;1.50;99.90
7530;DHT22;3806;52.270;10.544;2022-12-10T05:53:46;1.50;99.90
7530;DHT22;3806;52.270;10.544;2022-12-10T05:56:15;1.40;99.90
7530;DHT22;3806;52.270;10.544;2022-12-10T05:58:42;1.40;99.90
7530;DHT22;3806;52.270;10.544;2022-12-10T06:01:15;1.40;99.90
7530;DHT22;3806;52.270;10.544;2022-12-10T06:03:41;1.40;99.90
7530;DHT22;3806;52.270;10.544;2022-12-10T06:06:06;1.40;99.90
7530;DHT22;3806;52.270;10.544;2022-12-10T06:08:32;1.40;99.90
7530;DHT22;3806;52.270;10.544;2022-12-10T06:11:07;1.40;99.90
7530;DHT22;3806;52.270;10.544;2022-12-10T06:13:32;1.40;99.90
7530;DHT22;3806;52.270;10.544;2022-12-10T06:15:58;1.40;99.90
7530;DHT22;3806;52.270;10.544;2022-12-10T06:18:24;1.40;99.90
7530;DHT22;3806;52.270;10.544;2022-12-10T06:20:50;1.40;99.90
7530;DHT22;3806;52.270;10.544;2022-12-10T06:23:15;1.50;99.90
7530;DHT22;3806;52.270;10.544;2022-12-10T06:25:41;1.50;99.90
7530;DHT22;3806;52.270;10.544;2022-12-10T06:28:07;1.50;99.90
7530;DHT22;3806;52.270;10.544;2022-12-10T06:30:34;1.40;99.90
7530;DHT22;3806;52.270;10.544;2022-12-10T06:32:59;1.50;99.90
7530;DHT22;3806;52.270;10.544;2022-12-10T06:35:26;1.50;99.90
7530;DHT22;3806;52.270;10.544;2022-12-10T06:37:51;1.50;99.90
7530;DHT22;3806;52.270;10.544;2022-12-10T06:40:17;1.50;99.90
7530;DHT22;3806;52.270;10.544;2022-12-10T06:42:43;1.50;99.90
7530;DHT22;3806;52.270;10.544;2022-12-10T06:45:09;1.50;99.90
7530;DHT22;3806;52.270;10.544;2022-12-10T06:47:34;1.50;99.90
7530;DHT22;3806;52.270;10.544;2022-12-10T06:50:00;1.50;99.90
7530;DHT22;3806;52.270;10.544;2022-12-10T06:52:26;1.40;99.90
7530;DHT22;3806;52.270;10.544;2022-12-10T06:54:51;1.40;99.90
7530;DHT22;3806;52.270;10.544;2022-12-10T06:57:19;1.40;99.90
7530;DHT22;3806;52.270;10.544;2022-12-10T06:59:44;1.40;99.90
7530;DHT22;3806;52.270;10.544;2022-12-10T07:02:10;1.40;99.90
7530;DHT22;3806;52.270;10.544;2022-12-10T07:04:36;1.50;99.90
7530;DHT22;3806;52.270;10.544;2022-12-10T07:07:01;1.40;99.90
7530;DHT22;3806;52.270;10.544;2022-12-10T07:09:27;1.30;99.90
7530;DHT22;3806;52.270;10.544;2022-12-10T07:11:53;1.30;99.90
7530;DHT22;3806;52.270;10.544;2022-12-10T07:14:18;1.30;99.90
7530;DHT22;3806;52.270;10.544;2022-12-10T07:16:44;1.20;99.90
7530;DHT22;3806;52.270;10.544;2022-12-10T07:19:11;1.20;99.90
7530;DHT22;3806;52.270;10.544;2022-12-10T07:21:40;1.20;99.90
7530;DHT22;3806;52.270;10.544;2022-12-10T07:24:10;1.20;99.90
7530;DHT22;3806;52.270;10.544;2022-12-10T07:26:38;1.20;99.90
7530;DHT22;3806;52.270;10.544;2022-12-10T07:29:05;1.30;99.90
7530;DHT22;3806;52.270;10.544;2022-12-10T07:31:31;1.30;99.90
7530;DHT22;3806;52.270;10.544;2022-12-10T07:33:58;1.30;99.90
7530;DHT22;3806;52.270;10.544;2022-12-10T07:36:24;1.30;99.90
7530;DHT22;3806;52.270;10.544;2022-12-10T07:38:54;1.30;99.90
7530;DHT22;3806;52.270;10.544;2022-12-10T07:41:21;1.30;99.90
7530;DHT22;3806;52.270;10.544;2022-12-10T07:43:47;1.30;99.90
7530;DHT22;3806;52.270;10.544;2022-12-10T07:46:18;1.30;99.90
7530;DHT22;3806;52.270;10.544;2022-12-10T07:48:47;1.40;99.90
7530;DHT22;3806;52.270;10.544;2022-12-10T07:51:13;1.40;99.90
7530;DHT22;3806;52.270;10.544;2022-12-10T07:53:39;1.40;99.90
7530;DHT22;3806;52.270;10.544;2022-12-10T07:56:05;1.30;99.90
7530;DHT22;3806;52.270;10.544;2022-12-10T07:58:32;1.30;99.90
7530;DHT22;3806;52.270;10.544;2022-12-10T08:00:57;1.30;99.90
7530;DHT22;3806;52.270;10.544;2022-12-10T08:03:23;1.30;99.90
7530;DHT22;3806;52.270;10.544;2022-12-10T08:06:00;1.30;99.90
7530;DHT22;3806;52.270;10.544;2022-12-10T08:08:25;1.30;99.90
7530;DHT22;3806;52.270;10.544;2022-12-10T08:10:51;1.30;99.90
7530;DHT22;3806;52.270;10.544;2022-12-10T08:13:16;1.30;99.90
7530;DHT22;3806;52.270;10.544;2022-12-10T08:15:42;1.40;99.90
7530;DHT22;3806;52.270;10.544;2022-12-10T08:18:07;1.40;99.90
7530;DHT22;3806;52.270;10.544;2022-12-10T08:20:33;1.40;99.90
7530;DHT22;3806;52.270;10.544;2022-12-10T08:23:00;1.40;99.90
7530;DHT22;3806;52.270;10.544;2022-12-10T08:25:26;1.30;99.90
7530;DHT22;3806;52.270;10.544;2022-12-10T08:27:51;1.30;99.90
7530;DHT22;3806;52.270;10.544;2022-12-10T08:30:17;1.40;99.90
7530;DHT22;3806;52.270;10.544;2022-12-10T08:32:42;1.40;99.90
7530;DHT22;3806;52.270;10.544;2022-12-10T08:35:08;1.40;99.90
7530;DHT22;3806;52.270;10.544;2022-12-10T08:37:34;1.40;99.90
7530;DHT22;3806;52.270;10.544;2022-12-10T08:39:59;1.50;99.90
7530;DHT22;3806;52.270;10.544;2022-12-10T08:42:25;1.50;99.90
7530;DHT22;3806;52.270;10.544;2022-12-10T08:44:50;1.50;99.90
7530;DHT22;3806;52.270;10.544;2022-12-10T08:47:16;1.50;99.90
7530;DHT22;3806;52.270;10.544;2022-12-10T08:49:42;1.40;99.90
7530;DHT22;3806;52.270;10.544;2022-12-10T08:52:07;1.40;99.90
7530;DHT22;3806;52.270;10.544;2022-12-10T08:54:33;1.50;99.90
7530;DHT22;3806;52.270;10.544;2022-12-10T08:56:58;1.50;99.90
7530;DHT22;3806;52.270;10.544;2022-12-10T08:59:24;1.50;99.90
7530;DHT22;3806;52.270;10.544;2022-12-10T09:01:51;1.40;99.90
7530;DHT22;3806;52.270;10.544;2022-12-10T09:04:17;1.40;99.90
7530;DHT22;3806;52.270;10.544;2022-12-10T09:06:43;1.40;99.90
7530;DHT22;3806;52.270;10.544;2022-12-10T09:09:08;1.40;99.90
7530;DHT22;3806;52.270;10.544;2022-12-10T09:11:34;1.40;99.90
7530;DHT22;3806;52.270;10.544;2022-12-10T09:14:00;1.40;99.90
7530;DHT22;3806;52.270;10.544;2022-12-10T09:16:36;1.40;99.90
7530;DHT22;3806;52.270;10.544;2022-12-10T09:19:03;1.40;99.90
7530;DHT22;3806;52.270;10.544;2022-12-10T09:21:29;1.40;99.90
7530;DHT22;3806;52.270;10.544;2022-12-10T09:23:56;1.40;99.90
7530;DHT22;3806;52.270;10.544;2022-12-10T09:26:22;1.40;99.90
7530;DHT22;3806;52.270;10.544;2022-12-10T09:28:48;1.30;99.90
7530;DHT22;3806;52.270;10.544;2022-12-10T09:31:15;1.40;99.90
7530;DHT22;3806;52.270;10.544;2022-12-10T09:33:42;1.40;99.90
7530;DHT22;3806;52.270;10.544;2022-12-10T09:36:10;1.40;99.90
7530;DHT22;3806;52.270;10.544;2022-12-10T09:38:38;1.40;99.90
7530;DHT22;3806;52.270;10.544;2022-12-10T09:43:50;1.40;99.90
7530;DHT22;3806;52.270;10.544;2022-12-10T09:51:24;1.60;99.90
7530;DHT22;3806;52.270;10.544;2022-12-10T09:53:53;1.70;99.90
7530;DHT22;3806;52.270;10.544;2022-12-10T09:56:27;1.70;99.90
7530;DHT22;3806;52.270;10.544;2022-12-10T09:58:54;1.60;99.90
7530;DHT22;3806;52.270;10.544;2022-12-10T10:01:24;1.70;99.90
7530;DHT22;3806;52.270;10.544;2022-12-10T10:03:52;1.60;99.90
7530;DHT22;3806;52.270;10.544;2022-12-10T10:06:19;1.60;99.90
7530;DHT22;3806;52.270;10.544;2022-12-10T10:08:48;1.50;99.90
7530;DHT22;3806;52.270;10.544;2022-12-10T10:11:25;1.60;99.90
7530;DHT22;3806;52.270;10.544;2022-12-10T10:21:23;1.60;99.90
7530;DHT22;3806;52.270;10.544;2022-12-10T10:23:50;1.60;99.90
7530;DHT22;3806;52.270;10.544;2022-12-10T10:26:16;1.70;99.90
7530;DHT22;3806;52.270;10.544;2022-12-10T10:28:43;1.70;99.90
7530;DHT22;3806;52.270;10.544;2022-12-10T10:31:24;1.80;99.90
7530;DHT22;3806;52.270;10.544;2022-12-10T10:33:53;1.80;99.90
7530;DHT22;3806;52.270;10.544;2022-12-10T10:36:28;1.80;99.90
7530;DHT22;3806;52.270;10.544;2022-12-10T10:38:54;1.70;99.90
7530;DHT22;3806;52.270;10.544;2022-12-10T10:41:20;1.80;99.90
7530;DHT22;3806;52.270;10.544;2022-12-10T10:43:46;1.80;99.90
7530;DHT22;3806;52.270;10.544;2022-12-10T10:46:22;1.80;99.90
7530;DHT22;3806;52.270;10.544;2022-12-10T10:48:49;1.80;99.90
7530;DHT22;3806;52.270;10.544;2022-12-10T10:51:19;1.90;99.90
7530;DHT22;3806;52.270;10.544;2022-12-10T10:53:55;1.80;99.90
7530;DHT22;3806;52.270;10.544;2022-12-10T10:56:39;1.70;99.90
7530;DHT22;3806;52.270;10.544;2022-12-10T11:01:46;1.70;99.90
7530;DHT22;3806;52.270;10.544;2022-12-10T11:04:13;1.70;99.90
7530;DHT22;3806;52.270;10.544;2022-12-10T11:06:40;1.70;99.90
7530;DHT22;3806;52.270;10.544;2022-12-10T11:09:06;1.70;99.90
7530;DHT22;3806;52.270;10.544;2022-12-10T11:11:39;1.70;99.90
7530;DHT22;3806;52.270;10.544;2022-12-10T11:16:40;1.70;99.90
7530;DHT22;3806;52.270;10.544;2022-12-10T11:19:20;1.70;99.90
7530;DHT22;3806;52.270;10.544;2022-12-10T11:21:47;1.70;99.90
7530;DHT22;3806;52.270;10.544;2022-12-10T11:24:17;1.70;99.90
7530;DHT22;3806;52.270;10.544;2022-12-10T11:26:56;1.60;99.90
7530;DHT22;3806;52.270;10.544;2022-12-10T11:29:46;1.60;99.90
7530;DHT22;3806;52.270;10.544;2022-12-10T11:32:23;1.50;99.90
7530;DHT22;3806;52.270;10.544;2022-12-10T11:43:07;1.60;99.90
7530;DHT22;3806;52.270;10.544;2022-12-10T11:45:57;1.60;99.90
7530;DHT22;3806;52.270;10.544;2022-12-10T11:51:04;1.60;99.90
7530;DHT22;3806;52.270;10.544;2022-12-10T11:53:51;1.50;99.90
7530;DHT22;3806;52.270;10.544;2022-12-10T12:02:15;1.60;99.90
7530;DHT22;3806;52.270;10.544;2022-12-10T12:05:13;1.60;99.90
7530;DHT22;3806;52.270;10.544;2022-12-10T12:13:08;1.60;99.90
7530;DHT22;3806;52.270;10.544;2022-12-10T12:15:44;1.50;99.90
7530;DHT22;3806;52.270;10.544;2022-12-10T12:18:25;1.50;99.90
7530;DHT22;3806;52.270;10.544;2022-12-10T12:20:57;1.40;99.90
7530;DHT22;3806;52.270;10.544;2022-12-10T12:23:44;1.30;99.90
7530;DHT22;3806;52.270;10.544;2022-12-10T12:26:31;1.40;99.90
7530;DHT22;3806;52.270;10.544;2022-12-10T12:29:05;1.40;99.90
7530;DHT22;3806;52.270;10.544;2022-12-10T12:31:43;1.50;99.90
7530;DHT22;3806;52.270;10.544;2022-12-10T12:37:20;1.50;99.90
7530;DHT22;3806;52.270;10.544;2022-12-10T12:42:58;1.50;99.90
7530;DHT22;3806;52.270;10.544;2022-12-10T12:45:38;1.50;99.90
7530;DHT22;3806;52.270;10.544;2022-12-10T12:48:09;1.50;99.90
7530;DHT22;3806;52.270;10.544;2022-12-10T12:53:23;1.50;99.90
7530;DHT22;3806;52.270;10.544;2022-12-10T12:58:40;1.50;99.90
7530;DHT22;3806;52.270;10.544;2022-12-10T13:03:53;1.60;99.90
7530;DHT22;3806;52.270;10.544;2022-12-10T13:06:30;1.60;99.90
7530;DHT22;3806;52.270;10.544;2022-12-10T13:11:37;1.60;99.90
7530;DHT22;3806;52.270;10.544;2022-12-10T13:19:25;1.60;99.90
7530;DHT22;3806;52.270;10.544;2022-12-10T13:29:28;1.50;99.90
7530;DHT22;3806;52.270;10.544;2022-12-10T13:32:04;1.50;99.90
7530;DHT22;3806;52.270;10.544;2022-12-10T13:34:38;1.50;99.80
7530;DHT22;3806;52.270;10.544;2022-12-10T13:37:18;1.50;99.80
7530;DHT22;3806;52.270;10.544;2022-12-10T13:42:31;1.50;99.90
7530;DHT22;3806;52.270;10.544;2022-12-10T14:06:44;1.40;99.60
7530;DHT22;3806;52.270;10.544;2022-12-10T14:09:32;1.50;99.40
7530;DHT22;3806;52.270;10.544;2022-12-10T14:12:24;1.40;99.00
7530;DHT22;3806;52.270;10.544;2022-12-10T14:14:55;1.40;99.10
7530;DHT22;3806;52.270;10.544;2022-12-10T14:17:28;1.40;99.00
7530;DHT22;3806;52.270;10.544;2022-12-10T14:19:56;1.40;99.00
7530;DHT22;3806;52.270;10.544;2022-12-10T14:22:30;1.40;99.20
7530;DHT22;3806;52.270;10.544;2022-12-10T14:25:00;1.40;98.80
7530;DHT22;3806;52.270;10.544;2022-12-10T14:27:27;1.40;98.70
7530;DHT22;3806;52.270;10.544;2022-12-10T14:29:59;1.40;98.80
7530;DHT22;3806;52.270;10.544;2022-12-10T14:32:33;1.40;98.80
7530;DHT22;3806;52.270;10.544;2022-12-10T14:35:00;1.40;98.80
7530;DHT22;3806;52.270;10.544;2022-12-10T14:37:35;1.40;98.80
7530;DHT22;3806;52.270;10.544;2022-12-10T14:40:05;1.40;98.80
7530;DHT22;3806;52.270;10.544;2022-12-10T14:42:31;1.40;98.70
7530;DHT22;3806;52.270;10.544;2022-12-10T14:44:59;1.40;98.70
7530;DHT22;3806;52.270;10.544;2022-12-10T14:47:26;1.40;98.80
7530;DHT22;3806;52.270;10.544;2022-12-10T14:49:53;1.40;98.90
7530;DHT22;3806;52.270;10.544;2022-12-10T14:52:22;1.40;99.00
7530;DHT22;3806;52.270;10.544;2022-12-10T14:54:48;1.40;98.90
7530;DHT22;3806;52.270;10.544;2022-12-10T14:59:59;1.40;99.00
7530;DHT22;3806;52.270;10.544;2022-12-10T15:02:31;1.40;99.00
7530;DHT22;3806;52.270;10.544;2022-12-10T15:04:59;1.30;99.00
7530;DHT22;3806;52.270;10.544;2022-12-10T15:07:32;1.20;99.10
7530;DHT22;3806;52.270;10.544;2022-12-10T15:10:00;1.20;99.30
7530;DHT22;3806;52.270;10.544;2022-12-10T15:12:38;1.20;99.20
7530;DHT22;3806;52.270;10.544;2022-12-10T15:15:35;1.20;99.20
7530;DHT22;3806;52.270;10.544;2022-12-10T15:18:11;1.20;99.30
7530;DHT22;3806;52.270;10.544;2022-12-10T15:20:51;1.30;99.40
7530;DHT22;3806;52.270;10.544;2022-12-10T15:23:25;1.20;99.40
7530;DHT22;3806;52.270;10.544;2022-12-10T15:26:21;1.20;99.40
7530;DHT22;3806;52.270;10.544;2022-12-10T15:28:49;1.30;99.50
7530;DHT22;3806;52.270;10.544;2022-12-10T15:39:03;1.20;99.60
7530;DHT22;3806;52.270;10.544;2022-12-10T15:44:16;1.30;99.50
7530;DHT22;3806;52.270;10.544;2022-12-10T15:49:23;1.20;99.30
7530;DHT22;3806;52.270;10.544;2022-12-10T15:51:49;1.10;99.20
7530;DHT22;3806;52.270;10.544;2022-12-10T15:54:27;1.20;99.40
7530;DHT22;3806;52.270;10.544;2022-12-10T15:56:54;1.20;99.60
7530;DHT22;3806;52.270;10.544;2022-12-10T15:59:19;1.20;99.60
7530;DHT22;3806;52.270;10.544;2022-12-10T16:01:45;1.20;99.50
7530;DHT22;3806;52.270;10.544;2022-12-10T16:04:11;1.20;99.60
7530;DHT22;3806;52.270;10.544;2022-12-10T16:06:37;1.20;99.30
7530;DHT22;3806;52.270;10.544;2022-12-10T16:09:03;1.20;99.20
7530;DHT22;3806;52.270;10.544;2022-12-10T16:11:28;1.20;99.10
7530;DHT22;3806;52.270;10.544;2022-12-10T16:13:55;1.20;99.20
7530;DHT22;3806;52.270;10.544;2022-12-10T16:16:24;1.20;99.30
7530;DHT22;3806;52.270;10.544;2022-12-10T16:18:50;1.20;99.20
7530;DHT22;3806;52.270;10.544;2022-12-10T16:21:16;1.20;99.10
7530;DHT22;3806;52.270;10.544;2022-12-10T16:23:42;1.20;99.10
7530;DHT22;3806;52.270;10.544;2022-12-10T16:26:20;1.20;99.10
7530;DHT22;3806;52.270;10.544;2022-12-10T16:28:47;1.30;99.20
7530;DHT22;3806;52.270;10.544;2022-12-10T16:31:19;1.30;99.20
7530;DHT22;3806;52.270;10.544;2022-12-10T16:33:46;1.30;99.10
7530;DHT22;3806;52.270;10.544;2022-12-10T16:36:13;1.30;99.10
7530;DHT22;3806;52.270;10.544;2022-12-10T16:38:39;1.30;99.00
7530;DHT22;3806;52.270;10.544;2022-12-10T16:41:16;1.30;98.90
7530;DHT22;3806;52.270;10.544;2022-12-10T16:43:42;1.30;98.90
7530;DHT22;3806;52.270;10.544;2022-12-10T16:46:10;1.30;98.90
7530;DHT22;3806;52.270;10.544;2022-12-10T16:48:36;1.30;98.70
7530;DHT22;3806;52.270;10.544;2022-12-10T16:51:02;1.30;98.60
7530;DHT22;3806;52.270;10.544;2022-12-10T16:53:29;1.30;98.60
7530;DHT22;3806;52.270;10.544;2022-12-10T16:55:57;1.30;98.60
7530;DHT22;3806;52.270;10.544;2022-12-10T16:58:24;1.30;98.60
7530;DHT22;3806;52.270;10.544;2022-12-10T17:00:51;1.20;98.60
7530;DHT22;3806;52.270;10.544;2022-12-10T17:03:20;1.30;98.70
7530;DHT22;3806;52.270;10.544;2022-12-10T17:05:54;1.30;98.80
7530;DHT22;3806;52.270;10.544;2022-12-10T17:08:21;1.30;98.70
7530;DHT22;3806;52.270;10.544;2022-12-10T17:10:48;1.30;98.70
7530;DHT22;3806;52.270;10.544;2022-12-10T17:13:34;1.30;98.70
7530;DHT22;3806;52.270;10.544;2022-12-10T17:16:00;1.30;98.50
7530;DHT22;3806;52.270;10.544;2022-12-10T17:18:26;1.30;98.50
7530;DHT22;3806;52.270;10.544;2022-12-10T17:20:52;1.30;98.50
7530;DHT22;3806;52.270;10.544;2022-12-10T17:23:18;1.30;98.50
7530;DHT22;3806;52.270;10.544;2022-12-10T17:25:44;1.30;98.50
7530;DHT22;3806;52.270;10.544;2022-12-10T17:28:13;1.30;98.50
7530;DHT22;3806;52.270;10.544;2022-12-10T17:30:40;1.30;98.60
7530;DHT22;3806;52.270;10.544;2022-12-10T17:33:05;1.30;98.60
7530;DHT22;3806;52.270;10.544;2022-12-10T17:35:31;1.30;98.40
7530;DHT22;3806;52.270;10.544;2022-12-10T17:37:57;1.20;98.30
7530;DHT22;3806;52.270;10.544;2022-12-10T17:40:23;1.20;98.50
7530;DHT22;3806;52.270;10.544;2022-12-10T17:42:49;1.20;98.60
7530;DHT22;3806;52.270;10.544;2022-12-10T17:45:17;1.20;98.50
7530;DHT22;3806;52.270;10.544;2022-12-10T17:47:44;1.20;98.50
7530;DHT22;3806;52.270;10.544;2022-12-10T17:50:25;1.20;98.50
7530;DHT22;3806;52.270;10.544;2022-12-10T17:52:51;1.20;98.40
7530;DHT22;3806;52.270;10.544;2022-12-10T17:55:17;1.20;98.30
7530;DHT22;3806;52.270;10.544;2022-12-10T17:57:43;1.20;98.30
7530;DHT22;3806;52.270;10.544;2022-12-10T18:00:15;1.20;98.50
7530;DHT22;3806;52.270;10.544;2022-12-10T18:02:41;1.30;98.60
7530;DHT22;3806;52.270;10.544;2022-12-10T18:05:07;1.30;98.60
7530;DHT22;3806;52.270;10.544;2022-12-10T18:07:32;1.30;98.50
7530;DHT22;3806;52.270;10.544;2022-12-10T18:09:58;1.30;98.30
7530;DHT22;3806;52.270;10.544;2022-12-10T18:12:24;1.30;98.30
7530;DHT22;3806;52.270;10.544;2022-12-10T18:14:49;1.30;98.30
7530;DHT22;3806;52.270;10.544;2022-12-10T18:17:15;1.30;98.30
7530;DHT22;3806;52.270;10.544;2022-12-10T18:19:42;1.30;98.30
7530;DHT22;3806;52.270;10.544;2022-12-10T18:22:08;1.30;98.20
7530;DHT22;3806;52.270;10.544;2022-12-10T18:24:34;1.30;98.20
7530;DHT22;3806;52.270;10.544;2022-12-10T18:27:00;1.30;98.20
7530;DHT22;3806;52.270;10.544;2022-12-10T18:29:27;1.30;98.30
7530;DHT22;3806;52.270;10.544;2022-12-10T18:31:53;1.30;98.20